createdAt,value
2022-08-03T00:04:23.263Z,19.20
2022-08-03T00:12:09.944Z,19.17
2022-08-03T00:19:43.550Z,19.14
2022-08-03T00:27:18.550Z,19.20
2022-08-03T00:34:57.826Z,19.19
2022-08-03T00:42:34.078Z,19.11
2022-08-03T00:50:08.061Z,19.09
2022-08-03T00:57:43.202Z,19.05
2022-08-03T01:05:16.795Z,19.02
2022-08-03T01:12:57.735Z,19.01
2022-08-03T01:20:33.868Z,18.99
2022-08-03T01:28:15.227Z,18.96
2022-08-03T01:35:54.547Z,18.96
2022-08-03T01:43:55.464Z,18.94
2022-08-03T01:51:25.218Z,18.95
2022-08-03T01:59:20.690Z,18.94
2022-08-03T02:07:02.153Z,18.93
2022-08-03T02:14:37.059Z,18.92
2022-08-03T02:22:12.973Z,18.88
2022-08-03T02:29:48.171Z,18.88
2022-08-03T02:37:25.282Z,18.83
2022-08-03T02:45:00.247Z,18.80
2022-08-03T02:52:36.603Z,18.76
2022-08-03T03:00:10.808Z,18.74
2022-08-03T03:07:52.087Z,18.71
2022-08-03T03:15:27.488Z,18.68
2022-08-03T03:23:03.584Z,18.64
2022-08-03T03:30:37.387Z,18.65
2022-08-03T03:38:12.448Z,18.62
2022-08-03T03:45:46.867Z,18.56
2022-08-03T03:53:21.805Z,18.46
2022-08-03T04:00:55.416Z,18.47
2022-08-03T04:08:48.018Z,18.45
2022-08-03T04:16:25.140Z,18.48
2022-08-03T04:24:03.063Z,18.49
2022-08-03T04:31:37.957Z,18.54
2022-08-03T04:39:15.407Z,18.53
2022-08-03T04:46:52.549Z,18.58
2022-08-03T04:54:27.854Z,18.60
2022-08-03T05:02:01.647Z,18.75
2022-08-03T05:09:50.245Z,18.88
2022-08-03T05:17:26.626Z,19.02
2022-08-03T05:25:01.745Z,19.20
2022-08-03T05:32:35.286Z,19.41
2022-08-03T05:40:10.994Z,19.71
2022-08-03T05:47:44.648Z,20.10
2022-08-03T05:55:19.751Z,20.33
2022-08-03T06:02:53.397Z,20.74
2022-08-03T06:10:36.858Z,20.98
2022-08-03T06:18:11.679Z,21.20
2022-08-03T06:25:46.807Z,21.54
2022-08-03T06:33:20.370Z,21.80
2022-08-03T06:40:55.287Z,22.11
2022-08-03T06:48:29.138Z,22.37
2022-08-03T06:56:05.420Z,22.66
2022-08-03T07:03:47.573Z,23.07
2022-08-03T07:11:28.620Z,23.31
2022-08-03T07:19:02.192Z,23.79
2022-08-03T07:26:37.179Z,24.35
2022-08-03T07:34:10.796Z,24.52
2022-08-03T07:41:46.106Z,24.87
2022-08-03T07:49:19.755Z,25.13
2022-08-03T07:56:54.783Z,25.35
2022-08-03T08:04:28.381Z,25.62
2022-08-03T08:12:03.550Z,26.01
2022-08-03T08:19:51.557Z,26.49
2022-08-03T08:27:26.862Z,26.96
2022-08-03T08:35:00.669Z,27.20
2022-08-03T08:42:35.857Z,28.48
2022-08-03T08:50:21.575Z,28.50
2022-08-03T08:58:06.299Z,28.68
2022-08-03T09:05:55.457Z,28.89
2022-08-03T09:13:31.484Z,29.27
2022-08-03T09:21:30.094Z,30.18
2022-08-03T09:29:13.236Z,30.54
2022-08-03T09:36:48.906Z,30.76
2022-08-03T09:44:34.653Z,30.92
2022-08-03T09:52:32.782Z,31.44
2022-08-03T10:00:13.429Z,31.44
2022-08-03T10:07:48.104Z,31.54
2022-08-03T10:16:24.078Z,31.38
2022-08-03T10:23:17.974Z,31.16
2022-08-03T10:30:56.076Z,31.18
2022-08-03T10:38:30.943Z,31.30
2022-08-03T10:46:08.061Z,31.27
2022-08-03T10:53:44.188Z,31.17
2022-08-03T11:01:59.189Z,31.18
2022-08-03T11:09:43.232Z,31.10
2022-08-03T11:17:17.314Z,30.94
2022-08-03T11:25:02.189Z,31.13
2022-08-03T11:32:56.240Z,30.94
2022-08-03T11:40:38.810Z,31.22
2022-08-03T11:48:15.089Z,30.89
2022-08-03T11:55:49.989Z,31.13
2022-08-03T12:03:23.971Z,31.19
2022-08-03T12:11:00.439Z,31.37
2022-08-03T12:18:34.167Z,31.33
2022-08-03T12:26:10.938Z,31.48
2022-08-03T12:33:58.915Z,31.55
2022-08-03T12:41:35.302Z,31.64
2022-08-03T12:49:11.184Z,31.54
2022-08-03T12:56:59.388Z,31.49
2022-08-03T13:04:33.797Z,31.69
2022-08-03T13:12:10.658Z,31.83
2022-08-03T13:19:44.621Z,31.97
2022-08-03T13:28:03.508Z,31.91
2022-08-03T13:35:16.603Z,31.89
2022-08-03T13:42:51.703Z,31.91
2022-08-03T13:50:25.365Z,32.08
2022-08-03T13:58:03.905Z,32.15
2022-08-03T14:05:40.862Z,32.24
2022-08-03T14:13:16.812Z,32.34
2022-08-03T14:20:56.344Z,32.80
2022-08-03T14:28:32.601Z,32.79
2022-08-03T14:36:06.501Z,32.72
2022-08-03T14:43:41.472Z,33.38
2022-08-03T14:51:35.075Z,33.06
2022-08-03T14:59:10.050Z,33.21
2022-08-03T15:06:43.784Z,33.55
2022-08-03T15:14:32.303Z,33.91
2022-08-03T15:22:08.338Z,34.38
2022-08-03T15:30:06.852Z,33.72
2022-08-03T15:37:37.744Z,33.29
2022-08-03T15:45:13.391Z,33.45
2022-08-03T15:52:51.537Z,34.09
2022-08-03T16:00:33.456Z,33.97
2022-08-03T16:08:11.792Z,33.71
2022-08-03T16:15:48.765Z,33.55
2022-08-03T16:23:22.387Z,33.01
2022-08-03T16:30:57.338Z,33.50
2022-08-03T16:38:31.389Z,33.85
2022-08-03T16:46:06.293Z,34.14
2022-08-03T16:54:05.464Z,33.94
2022-08-03T17:01:37.649Z,33.35
2022-08-03T17:09:12.741Z,33.05
2022-08-03T17:16:52.088Z,33.02
2022-08-03T17:24:29.229Z,32.82
2022-08-03T17:32:09.517Z,32.51
2022-08-03T17:40:00.418Z,32.22
2022-08-03T17:47:43.289Z,31.99
2022-08-03T17:55:57.042Z,31.74
2022-08-03T18:03:20.555Z,31.45
2022-08-03T18:10:57.103Z,31.23
2022-08-03T18:18:40.468Z,30.98
2022-08-03T18:26:17.512Z,30.70
2022-08-03T18:34:32.534Z,30.48
2022-08-03T18:41:46.837Z,30.17
2022-08-03T18:49:29.478Z,29.84
2022-08-03T18:57:03.230Z,29.57
2022-08-03T19:04:41.210Z,29.28
2022-08-03T19:12:30.561Z,28.95
2022-08-03T19:20:10.289Z,28.64
2022-08-03T19:27:45.176Z,28.34
2022-08-03T19:35:51.560Z,28.10
2022-08-03T19:43:18.744Z,27.81
2022-08-03T19:50:54.307Z,27.59
2022-08-03T19:58:31.752Z,27.32
2022-08-03T20:06:07.158Z,27.06
2022-08-03T20:13:40.941Z,26.84
2022-08-03T20:21:18.877Z,26.64
2022-08-03T20:28:54.272Z,26.37
2022-08-03T20:36:29.290Z,26.09
2022-08-03T20:44:04.495Z,25.88
2022-08-03T20:51:50.395Z,25.63
2022-08-03T20:59:34.835Z,25.42
2022-08-03T21:07:23.524Z,25.34
2022-08-03T21:15:00.141Z,25.12
2022-08-03T21:22:37.537Z,24.98
2022-08-03T21:30:11.943Z,24.80
2022-08-03T21:37:47.584Z,24.65
2022-08-03T21:45:21.322Z,24.46
2022-08-03T21:52:57.610Z,24.27
2022-08-03T22:00:31.502Z,24.14
2022-08-03T22:08:06.649Z,23.98
2022-08-03T22:15:40.315Z,23.85
2022-08-03T22:23:19.625Z,23.84
2022-08-03T22:30:54.966Z,23.75
2022-08-03T22:38:30.570Z,23.63
2022-08-03T22:46:10.540Z,23.50
2022-08-03T22:53:47.565Z,23.38
2022-08-03T23:01:24.202Z,23.27
2022-08-03T23:08:59.459Z,23.13
2022-08-03T23:16:38.234Z,23.03
2022-08-03T23:24:25.552Z,22.94
2022-08-03T23:32:03.987Z,22.83
2022-08-03T23:39:39.970Z,22.66
2022-08-03T23:47:13.704Z,22.58
2022-08-03T23:54:58.301Z,22.51
